Clinton, OK

2:27 PM CDT on May 23, 2018 (GMT -0500)
Clinton Municipal

Weather History for KCLK - February, 2013

Change the Weather History Date:

Friday, February 15, 2013

  Actual Average (KCSM) Record (KCSM)
Temperature  
Mean Temperature 36 °F -  
Max Temperature 42 °F 52 °F 78 °F (2018)
Min Temperature 30 °F 32 °F 8 °F (2007)
Degree Days  
Heating Degree Days 29    
Moisture  
Dew Point 22 °F    
Average Humidity 61    
Maximum Humidity 93    
Minimum Humidity 34    
Precipitation  
Precipitation 0.00 in - - ()
Sea Level Pressure  
Sea Level Pressure 30.35 in    
Wind  
Wind Speed 11 mph (NNE)    
Max Wind Speed 18 mph    
Max Gust Speed 24 mph    
Visibility 10 miles    
Events Snow    
Averages and records for this station are not official NWS values.
T = Trace of Precipitation, MM = Missing Value Source: NWS Daily Summary

Daily Weather History Graph

Daily Weather History Graph

Search for Another Location

Airport or City:

Astronomy

Feb. 15, 2013 Rise Set
Actual Time 7:22 AM CST 6:18 PM CST
Civil Twilight 6:56 AM CST 6:44 PM CST
Nautical Twilight 6:26 AM CST 7:14 PM CST
Astronomical Twilight 5:56 AM CST 7:43 PM CST
Moon 10:12 AM CST (2/15) No Moon Set
Length of Visible Light 11h 48m
Length of Day
10h 56m
Waxing Crescent, 30% of the Moon is Illuminated
Feb 15
Waxing Crescent
Feb 17
First Quarter
Feb 25
Full
Mar 4
Last Quarter
Mar 11
New

Hourly Weather History & Observations

Time (CST) Temp. Windchill Dew Point Humidity Pressure Visibility Wind Dir Wind Speed Gust Speed Precip Events Conditions
12:15 AM 37.4 °F 28.5 °F 32.0 °F 81% 30.25 in 10.0 mi North 15.0 mph - N/A   Clear
12:35 AM 35.6 °F 27.5 °F 32.0 °F 87% 30.26 in 10.0 mi North 11.5 mph - N/A   Clear
12:55 AM 35.6 °F 28.0 °F 32.0 °F 87% 30.26 in 10.0 mi North 10.4 mph - N/A   Clear
1:15 AM 35.6 °F 27.5 °F 32.0 °F 87% 30.27 in 10.0 mi North 11.5 mph - N/A   Scattered Clouds
1:35 AM 35.6 °F 25.9 °F 30.2 °F 81% 30.28 in 10.0 mi North 16.1 mph - N/A   Clear
1:55 AM 37.4 °F 29.3 °F 30.2 °F 75% 30.30 in 10.0 mi North 12.7 mph - N/A   Clear
2:15 AM 37.4 °F 27.5 °F 28.4 °F 70% 30.31 in 10.0 mi NNE 18.4 mph 24.2 mph N/A   Clear
2:35 AM 35.6 °F 25.9 °F 26.6 °F 70% 30.31 in 10.0 mi NNE 16.1 mph 24.2 mph N/A   Clear
2:55 AM 35.6 °F 25.9 °F 24.8 °F 65% 30.31 in 10.0 mi North 16.1 mph - N/A   Clear
3:15 AM 35.6 °F 25.9 °F 23.0 °F 60% 30.31 in 10.0 mi North 16.1 mph - N/A   Clear
3:35 AM 33.8 °F 24.3 °F 23.0 °F 65% 30.31 in 10.0 mi North 13.8 mph - N/A   Clear
4:15 AM 33.8 °F 24.3 °F 21.2 °F 60% 30.32 in 10.0 mi North 13.8 mph - N/A   Clear
4:35 AM 32.0 °F 23.0 °F 21.2 °F 64% 30.32 in 10.0 mi NNE 11.5 mph - N/A   Clear
5:15 AM 32.0 °F 24.2 °F 23.0 °F 69% 30.31 in 10.0 mi NNE 9.2 mph - N/A   Clear
5:35 AM 32.0 °F 23.6 °F 23.0 °F 69% 30.32 in 10.0 mi NNE 10.4 mph - N/A   Clear
5:55 AM 32.0 °F 22.1 °F 23.0 °F 69% 30.33 in 10.0 mi North 13.8 mph - N/A   Clear
6:15 AM 32.0 °F 23.0 °F 19.4 °F 60% 30.35 in 10.0 mi North 11.5 mph - N/A   Clear
6:35 AM 32.0 °F 21.2 °F 19.4 °F 60% 30.35 in 10.0 mi NNE 16.1 mph 20.7 mph N/A   Clear
6:55 AM 32.0 °F 20.8 °F 19.4 °F 60% 30.35 in 10.0 mi NNE 17.3 mph 23.0 mph N/A   Clear
7:15 AM 32.0 °F 20.5 °F 19.4 °F 60% 30.36 in 10.0 mi NNE 18.4 mph 24.2 mph N/A   Clear
7:35 AM 30.2 °F 18.1 °F 19.4 °F 64% 30.36 in 10.0 mi North 18.4 mph - N/A   Clear
7:55 AM 30.2 °F 19.3 °F 19.4 °F 64% 30.37 in 10.0 mi North 15.0 mph 23.0 mph N/A   Clear
8:15 AM 30.2 °F 20.2 °F 19.4 °F 64% 30.38 in 10.0 mi North 12.7 mph - N/A   Clear
8:35 AM 30.2 °F 20.2 °F 19.4 °F 64% 30.40 in 10.0 mi NNE 12.7 mph - N/A   Clear
8:55 AM 32.0 °F 22.1 °F 19.4 °F 60% 30.41 in 10.0 mi North 13.8 mph - N/A   Clear
9:15 AM 32.0 °F 23.0 °F 19.4 °F 60% 30.41 in 10.0 mi North 11.5 mph - N/A   Clear
9:35 AM 32.0 °F 23.0 °F 19.4 °F 60% 30.42 in 10.0 mi North 11.5 mph - N/A   Clear
9:55 AM 32.0 °F 22.1 °F 17.6 °F 55% 30.42 in 10.0 mi NNE 13.8 mph - N/A   Clear
10:15 AM 32.0 °F 22.1 °F 17.6 °F 55% 30.41 in 10.0 mi NNE 13.8 mph 17.3 mph N/A   Clear
10:35 AM 32.0 °F 23.0 °F 17.6 °F 55% 30.42 in 10.0 mi North 11.5 mph - N/A   Clear
10:55 AM 33.8 °F 23.9 °F 17.6 °F 52% 30.42 in 10.0 mi North 15.0 mph - N/A   Clear
11:15 AM 33.8 °F 23.9 °F 17.6 °F 52% 30.42 in 10.0 mi North 15.0 mph - N/A   Clear
11:35 AM 35.6 °F 25.9 °F 17.6 °F 48% 30.42 in 10.0 mi NNE 16.1 mph - N/A   Clear
11:55 AM 35.6 °F 26.2 °F 15.8 °F 44% 30.42 in 10.0 mi NNE 15.0 mph 18.4 mph N/A   Clear
12:15 PM 37.4 °F 28.5 °F 15.8 °F 41% 30.41 in 10.0 mi NNE 15.0 mph - N/A   Clear
12:35 PM 37.4 °F 29.3 °F 17.6 °F 45% 30.41 in 10.0 mi North 12.7 mph - N/A   Clear
1:15 PM 41.0 °F 35.8 °F 17.6 °F 39% 30.38 in 10.0 mi NNE 8.1 mph - N/A   Clear
1:35 PM 41.0 °F 35.8 °F 17.6 °F 39% 30.37 in 10.0 mi NNE 8.1 mph - N/A   Clear
1:55 PM 41.0 °F 35.8 °F 17.6 °F 39% 30.36 in 10.0 mi NE 8.1 mph - N/A   Clear
2:15 PM 41.0 °F 38.0 °F 17.6 °F 39% 30.35 in 10.0 mi NNE 4.6 mph - N/A   Clear
2:35 PM 41.0 °F 36.4 °F 17.6 °F 39% 30.35 in 10.0 mi North 6.9 mph - N/A   Clear
2:55 PM 42.8 °F 40.1 °F 15.8 °F 34% 30.35 in 10.0 mi NNW 4.6 mph - N/A   Clear
3:15 PM 41.0 °F 35.8 °F 17.6 °F 39% 30.35 in 10.0 mi NNW 8.1 mph - N/A   Clear
3:35 PM 41.0 °F - 15.8 °F 36% 30.35 in 10.0 mi Calm Calm - N/A   Clear
3:55 PM 41.0 °F 38.0 °F 17.6 °F 39% 30.35 in 10.0 mi North 4.6 mph - N/A   Clear
4:15 PM 41.0 °F 39.0 °F 17.6 °F 39% 30.35 in 10.0 mi North 3.5 mph - N/A   Clear
4:35 PM 41.0 °F 39.0 °F 17.6 °F 39% 30.35 in 10.0 mi NNW 3.5 mph - N/A   Clear
5:15 PM 41.0 °F 38.0 °F 19.4 °F 42% 30.35 in 10.0 mi North 4.6 mph - N/A   Clear
5:35 PM 41.0 °F - 17.6 °F 39% 30.34 in 10.0 mi Calm Calm - N/A   Clear
5:55 PM 41.0 °F - 17.6 °F 39% 30.33 in 10.0 mi Calm Calm - N/A   Clear
6:15 PM 41.0 °F - 17.6 °F 39% 30.33 in 10.0 mi Calm Calm - N/A   Clear
6:35 PM 37.4 °F - 19.4 °F 48% 30.33 in 10.0 mi Calm Calm - N/A   Clear
7:15 PM 35.6 °F 30.7 °F 19.4 °F 52% 30.31 in 10.0 mi SE 5.8 mph - N/A   Clear
7:35 PM 33.8 °F 29.6 °F 21.2 °F 60% 30.31 in 10.0 mi SE 4.6 mph - N/A   Clear
7:55 PM 33.8 °F 29.6 °F 21.2 °F 60% 30.31 in 10.0 mi SE 4.6 mph - N/A   Clear
8:15 PM 32.0 °F 25.6 °F 21.2 °F 64% 30.31 in 10.0 mi SE 6.9 mph - N/A   Clear
8:35 PM 32.0 °F 26.4 °F 23.0 °F 69% 30.31 in 10.0 mi ESE 5.8 mph - N/A   Clear
8:55 PM 33.8 °F 29.6 °F 23.0 °F 65% 30.31 in 10.0 mi ESE 4.6 mph - N/A   Scattered Clouds
9:15 PM 33.8 °F 30.8 °F 23.0 °F 65% 30.38 in 10.0 mi North 3.5 mph - N/A   Mostly Cloudy
9:35 PM 33.8 °F 28.6 °F 26.6 °F 75% 30.39 in 7.0 mi NW 5.8 mph - N/A Snow Light Snow
9:55 PM 32.0 °F - 28.4 °F 87% 30.38 in 1.0 mi Calm Calm - N/A Snow Snow
10:15 PM 32.0 °F - 30.2 °F 93% 30.39 in 10.0 mi Calm Calm - N/A   Mostly Cloudy
10:35 PM 32.0 °F - 30.2 °F 93% 30.37 in 10.0 mi Calm Calm - N/A   Scattered Clouds
10:55 PM 32.0 °F - 30.2 °F 93% 30.36 in 10.0 mi Calm Calm - N/A   Clear
11:15 PM 32.0 °F - 30.2 °F 93% 30.37 in 10.0 mi Calm Calm - N/A   Clear
11:35 PM 32.0 °F 28.7 °F 30.2 °F 93% 30.37 in 10.0 mi NE 3.5 mph - N/A   Clear
11:55 PM 32.0 °F 26.4 °F 30.2 °F 93% 30.38 in 10.0 mi NNE 5.8 mph - N/A   Mostly Cloudy